Tiempo atmosférico en la estación meteorológica de Escorca, Lluc, Illes Balears (490 m.)

Fecha
DESCASC
Temp. máxima en grados centígrados (hora)
DESCASC
Temp. mínima en grados centígrados (hora)
DESCASC
Temp. media en grados centígrados
DESCASC
Racha de viento máxima en m/sg (hora)
DESCASC
Velocidad máxima media en intervalos de 10 minutos(hora)
DESCASC
Precipitaciones diarias en mm
DESCASC
Precipitaciones de 00:00 a 06:00 en mm
DESCASC
Precipitaciones de 06:00 a 12:00 en mm
DESCASC
Precipitaciones de 12:00 a 18:00 en mm
DESCASC
Precipitaciones de 18:00 a 24:00 en mm
DESCASC
17-09-2017 21.5 (12:50) 8 (05:20) 14.8 6.39 (23:40) 2.5 (23:40) 0.1 0.1 0 0 0
16-09-2017 16.8 (12:00) 9.4 (23:59) 13.1 6.11 (00:40) 1.67 (14:00) 17.5 1.5 1.2 14.8 0
15-09-2017 17.4 (12:10) 12.5 (23:40) 14.9 11.39 (13:30) 3.06 (12:40) 30.1 0 0 29 1.1
14-09-2017 27.2 (12:50) 12.4 (00:00) 19.8 9.17 (23:30) 2.78 (20:50) 0 0 0 0 0
13-09-2017 25.1 (14:50) 13.7 (00:00) 19.4 7.78 (20:10) 2.78 (20:00) 0 0 0 0 0
12-09-2017 20.6 (10:40) 13.5 (00:00) 17.1 8.06 (11:00) 2.78 (14:00) 0 0 0 0 0
11-09-2017 25.8 (14:40) 15.2 (00:00) 20.5 10.56 (09:30) 2.5 (10:50) 0 0 0 0 0
10-09-2017 18.8 (12:50) 12.1 (00:00) 15.4 7.5 (23:40) 2.22 (13:00) 23.7 17.5 6.1 0.1 0
09-09-2017 26.2 (12:10) 14.1 (00:00) 20.2 13.33 (07:10) 3.89 (07:10) 6.7 0 0 0 6.7
08-09-2017 24.1 (15:30) 15.1 (00:00) 19.6 5.28 (15:10) 1.67 (19:40) 9 6.2 2.8 0 0
07-09-2017 22.1 (12:10) 16.4 (00:00) 19.3 11.94 (08:10) 1.94 (11:30) 51.3 14.5 25.8 11 0
06-09-2017 25.8 (11:50) 14 (00:00) 19.9 6.39 (13:50) 2.5 (15:40) 0 0 0 0 0
05-09-2017 28.3 (13:50) 13.9 (00:00) 21.1 6.11 (12:50) 2.5 (12:40) 0 0 0 0 0
04-09-2017 26.7 (13:40) 15.4 (00:00) 21.1 6.67 (09:20) 2.78 (09:10) 0 0 0 0 0
03-09-2017 26.8 (14:50) 10.9 (00:00) 18.8 4.72 (14:50) 2.5 (18:50) 0 0 0 0 0
02-09-2017 23.4 (15:30) 14.2 (00:00) 18.8 5.83 (16:00) 1.67 (22:40) 0.8 0.2 0.5 0.1 0
01-09-2017 23.2 (15:30) 15.6 (00:00) 19.4 6.67 (11:50) 2.78 (14:10) 0 0 0 0 0
31-08-2017 27.6 (13:50) 17 (00:00) 22.3 5.56 (02:20) 2.22 (12:40) 5.6 0.4 0.2 5 0
30-08-2017 28.9 (13:30) 19.6 (00:00) 24.3 8.06 (03:30) 2.22 (04:00) 0.1 0.1 0 0 0
29-08-2017 32.3 (11:30) 16.8 (00:00) 24.5 6.11 (17:00) 2.22 (12:40) 0 0 0 0 0
28-08-2017 32.8 (12:30) 18.4 (00:00) 25.6 6.94 (17:40) 2.5 (14:30) 0 0 0 0 0
27-08-2017 32.3 (15:00) 15.8 (00:00) 24 7.5 (12:00) 2.78 (12:00) 0 0 0 0 0
26-08-2017 30.6 (14:20) 17.5 (00:00) 24.1 6.11 (04:40) 2.22 (04:40) 0 0 0 0 0
25-08-2017 30.8 (14:50) 18.4 (00:00) 24.6 7.22 (00:30) 2.78 (21:10) 0 0 0 0 0
24-08-2017 31 (14:50) 15.2 (00:00) 23.1 7.22 (23:59) 2.5 (15:00) 0 0 0 0 0
23-08-2017 30.1 (13:50) 14.3 (00:00) 22.2 7.5 (13:40) 2.5 (10:20) 0 0 0 0 0
22-08-2017 29.4 (14:30) 12 (00:00) 20.7 6.11 (17:50) 2.5 (18:20) 0 0 0 0 0

Gráficas

Temp. máximas Temp. mínimas Temp. medias Precipitaciones Rachas de viento máximas Velocidades máximas media en intervalos de 10 minutos

Datos horarios

Fecha y hora oficial Temperatura (ºC) Velocidad del viento (km/h) Dirección del viento Racha (km/h) Dirección de racha Precipitación (mm) Presión (hPa) Tendencia (hPa) Humedad (%)
2017-09-20 23:00:00 14.3 0 Calma 21 Sur 0 -- -- 87
2017-09-20 22:00:00 14.1 0 Calma 0 Calma 0 -- -- 87
2017-09-20 21:00:00 15 0 Calma -- -- 0 -- -- 84
2017-09-20 20:00:00 16 0 Calma -- -- 0 -- -- 81
2017-09-20 19:00:00 17.1 0 Calma -- -- 0 -- -- 76
2017-09-20 18:00:00 18.1 0 Calma -- -- 0 -- -- 68
2017-09-20 17:00:00 18.9 0 Calma 8 Sudoeste 0 -- -- 60
2017-09-20 16:00:00 18.6 0 Calma 7 Sur 0 -- -- 60
2017-09-20 15:00:00 19.3 0 Calma 15 Sudoeste 0 -- -- 54
2017-09-20 14:00:00 19.5 0 Calma 17 Sur 0 -- -- 56
2017-09-20 13:00:00 18.4 4 Sur 17 Sur 0 -- -- 55
2017-09-20 12:00:00 17.2 6 Sur 20 Sur 0 -- -- 59
2017-09-20 11:00:00 17.9 7 Sur 20 Sur 0 -- -- 62
2017-09-20 10:00:00 15.8 2 Sur 12 Sudeste 0 -- -- 71
2017-09-20 09:00:00 14.9 0 Calma 12 Nordeste 0 -- -- 72
2017-09-20 08:00:00 13.2 0 Calma 14 Sur 0 -- -- 80
2017-09-20 07:00:00 10.8 0 Calma -- -- 0 -- -- 85
2017-09-20 06:00:00 11.2 0 Calma 8 Este 0 -- -- 82
2017-09-20 05:00:00 11.2 0 Calma 5 Sudeste 0 -- -- 85
2017-09-20 04:00:00 12 0 Calma 7 Nordeste 0 -- -- 84
2017-09-20 03:00:00 11.9 2 Este 7 Sudeste 0 -- -- 84
2017-09-20 02:00:00 12.4 0 Calma 10 Sudeste 0 -- -- 83
2017-09-20 01:00:00 13 2 Sudeste 14 Sur 0 -- -- 82
2017-09-20 00:00:00 13 3 Sur 14 Sur 0 -- -- 85
2017-09-19 23:00:00 12.8 3 Sudeste 10 Sur 0 -- -- 85
2017-09-19 22:00:00 12.5 0 Calma 5 Sudeste 0 -- -- 82
2017-09-19 21:00:00 13.3 0 Calma 6 Sudeste 0 -- -- 76
2017-09-19 20:00:00 14.5 0 Calma 6 Sudoeste 0 -- -- 69
2017-09-19 19:00:00 16.4 0 Calma 11 Sur 0 -- -- 59
2017-09-19 18:00:00 17.5 3 Sudeste 12 Sur 0 -- -- 52
2017-09-19 17:00:00 18.9 3 Sur 20 Sudoeste 0 -- -- 48
2017-09-19 16:00:00 19.2 3 Sudeste 17 Sudeste 0 -- -- 46
2017-09-19 15:00:00 19.6 4 Sudeste 26 Sur 0 -- -- 52
2017-09-19 14:00:00 19.7 5 Sur 22 Este 0 -- -- 50
2017-09-19 13:00:00 20.4 4 Sur 19 Sudeste 0 -- -- 51
2017-09-19 12:00:00 20.6 4 Sur 23 Sur 0 -- -- 44
2017-09-19 11:00:00 19 4 Sur 30 Sur 0 -- -- 50
2017-09-19 10:00:00 16.7 0 Calma 9 Este 0 -- -- 73
2017-09-19 09:00:00 15.8 2 Este 7 Sudeste 0 -- -- 75
2017-09-19 08:00:00 13.3 2 Este 10 Sur 0 -- -- 84
2017-09-19 07:00:00 13.6 0 Calma 10 Sur 0 -- -- 86
2017-09-19 06:00:00 13.2 4 Sur 10 Sur 0 -- -- 87
2017-09-19 05:00:00 13.5 0 Calma 8 Sudoeste 0 -- -- 88
2017-09-19 04:00:00 13.4 3 Sur 10 Sudeste 0 -- -- 89
2017-09-19 03:00:00 13.6 0 Calma 9 Sur 0 -- -- 89
2017-09-19 02:00:00 13.5 2 Sur 8 Sudoeste 0 -- -- 89
2017-09-19 01:00:00 12.5 0 Calma 5 Sudeste 0 -- -- 89
2017-09-19 00:00:00 12.8 0 Calma -- -- 0 -- -- 88
2017-09-18 23:00:00 13.4 0 Calma -- -- 0 -- -- 87
2017-09-18 22:00:00 14.4 0 Calma 5 Norte 0 -- -- 86
2017-09-18 21:00:00 15.7 0 Calma 10 Este 0 -- -- 83
2017-09-18 20:00:00 16.3 3 Nordeste 15 Este 0 -- -- 80
2017-09-18 19:00:00 17 6 Nordeste 18 Nordeste 0 -- -- 81
2017-09-18 18:00:00 17.6 11 Nordeste 21 Nordeste 0 -- -- 82
2017-09-18 17:00:00 18.5 2 Sudeste 21 Este 0 -- -- 78
2017-09-18 16:00:00 20.4 6 Sudeste 21 Sur 0 -- -- 65
2017-09-18 15:00:00 22.2 6 Sur 32 Sur 0 -- -- 53
2017-09-18 14:00:00 22.9 2 Sur 33 Sudoeste 0 -- -- 43
2017-09-18 13:00:00 23 2 Sur 24 Nordeste 0 -- -- 47
2017-09-18 12:00:00 22.6 6 Sur 28 Sudoeste 0 -- -- 54
2017-09-18 11:00:00 21.6 9 Sur 27 Sur 0 -- -- 59
2017-09-18 10:00:00 19.7 8 Sur 28 Sudeste 0 -- -- 71
2017-09-18 09:00:00 19.1 8 Sur 32 Sur 0 -- -- 75
2017-09-18 08:00:00 18.3 9 Sur 36 Sur 0 -- -- 78
2017-09-18 07:00:00 18.1 8 Sur 33 Sudeste 0 -- -- 79
2017-09-18 06:00:00 17.9 9 Sur 33 Sur 0 -- -- 80
2017-09-18 05:00:00 16.7 0 Calma 15 Sudeste 0 -- -- 81
2017-09-18 04:00:00 17.4 4 Este 17 Sudeste 0 -- -- 79
2017-09-18 03:00:00 17.6 5 Sudeste 19 Sudoeste 0 -- -- 80
2017-09-18 02:00:00 16.6 0 Calma 20 Sudoeste 0 -- -- 81
2017-09-18 01:00:00 16.9 0 Calma 18 Sur 0 -- -- 80
2017-09-18 00:00:00 17.1 7 Sur 23 Sur 0 -- -- 79
2017-09-17 23:00:00 14.7 0 Calma 10 Sur 0 -- -- 85
2017-09-17 22:00:00 15 0 Calma 11 Sudoeste 0 -- -- 81
2017-09-17 21:00:00 15.1 0 Calma 10 Sur 0 -- -- 81
2017-09-17 20:00:00 16.8 0 Calma 15 Sur 0 -- -- 75
2017-09-17 19:00:00 17.4 0 Calma 10 Sudoeste 0 -- -- 71
2017-09-17 18:00:00 18.8 0 Calma 12 Nordeste 0 -- -- 60
2017-09-17 17:00:00 19.4 0 Calma 10 Sudoeste 0 -- -- 56
2017-09-17 16:00:00 19.6 0 Calma 10 Sudoeste 0 -- -- 55
2017-09-17 15:00:00 20.3 3 Sudeste 12 Sudoeste 0 -- -- 51
2017-09-17 14:00:00 20 2 Sudeste 9 Sudeste 0 -- -- 50
2017-09-17 13:00:00 20.6 0 Calma 14 Este 0 -- -- 44
2017-09-17 12:00:00 20.1 0 Calma 10 Sudeste 0 -- -- 46
2017-09-17 11:00:00 18.4 0 Calma 6 Sudeste 0 -- -- 59
2017-09-17 10:00:00 15 0 Calma 5 Sudeste 0 -- -- 83
2017-09-17 09:00:00 11.6 0 Calma 5 Sudeste 0 -- -- 89
2017-09-17 08:00:00 9.7 0 Calma 13 Sur 0 -- -- 90
2017-09-17 07:00:00 8.9 0 Calma -- -- 0 -- -- 90
2017-09-17 06:00:00 8.2 0 Calma -- -- 0 -- -- 89
2017-09-17 05:00:00 8.1 0 Calma -- -- 0 -- -- 89
2017-09-17 04:00:00 8.3 0 Calma -- -- 0 -- -- 89
2017-09-17 03:00:00 8.4 0 Calma -- -- 0 -- -- 89
2017-09-17 02:00:00 8.7 0 Calma 4 Este 0.1 -- -- 89
2017-09-17 01:00:00 9.1 0 Calma -- -- 0 -- -- 89
2017-09-17 00:00:00 9.5 0 Calma -- -- 0 -- -- 88
2017-09-16 23:00:00 10.7 0 Calma -- -- 0 -- -- 88
2017-09-16 22:00:00 11.7 0 Calma 2 Nordeste 0 -- -- 88
2017-09-16 21:00:00 12.7 0 Calma 7 Este 0 -- -- 88
2017-09-16 20:00:00 13.4 0 Calma -- -- 0 -- -- 88
2017-09-16 19:00:00 14.1 0 Calma 9 Sudeste 0 -- -- 87
2017-09-16 18:00:00 14.6 4 Este 13 Sur 0 -- -- 82
2017-09-16 17:00:00 14.2 0 Calma 8 Sur 0 -- -- 85
2017-09-16 16:00:00 13.4 0 Calma 19 Sudoeste 9.1 -- -- 86
2017-09-16 15:00:00 14.3 0 Calma -- -- -- -- -- 84
2017-09-16 14:00:00 15.6 6 Este 17 Sudeste 0.1 -- -- 77
2017-09-16 13:00:00 15.3 3 Sur 18 Este 0.1 -- -- 75
2017-09-16 12:00:00 16.3 5 Sur 19 Este 0 -- -- 73
2017-09-16 11:00:00 14.2 0 Calma 11 Sur 0 -- -- 88
2017-09-16 10:00:00 13.9 0 Calma 5 Oeste 0.4 -- -- 90
2017-09-16 09:00:00 12.6 0 Calma 6 Sur 0.8 -- -- 90
2017-09-16 08:00:00 12.2 0 Calma 8 Sur 0 -- -- 90
2017-09-16 07:00:00 12 0 Calma 8 Oeste 0 -- -- 90
2017-09-16 06:00:00 12.4 0 Calma 8 Sudoeste 0 -- -- 90
2017-09-16 05:00:00 12.4 0 Calma 9 Sudeste 0 -- -- 90
2017-09-16 04:00:00 12.7 0 Calma 8 Noroeste 0.2 -- -- 90
2017-09-16 03:00:00 12.8 0 Calma 10 Sur 1.2 -- -- 89
2017-09-16 02:00:00 12.4 0 Calma 13 Norte 0.1 -- -- 89
2017-09-16 01:00:00 12.7 2 Sudoeste 22 Sur 0 -- -- 89
2017-09-16 00:00:00 12.6 0 Calma 18 Sudoeste 0.1 -- -- 90
2017-09-15 23:00:00 12.9 0 Calma 18 Este 0.2 -- -- 90
2017-09-15 22:00:00 13.3 0 Calma 21 Este 0.1 -- -- 90
2017-09-15 21:00:00 13.5 0 Calma 14 Sudoeste 0 -- -- 90
2017-09-15 20:00:00 14.1 3 Sudoeste 16 Noroeste 0.5 -- -- 90
2017-09-15 19:00:00 14.9 4 Norte 21 Nordeste 0.2 -- -- 90
2017-09-15 18:00:00 15.3 2 Sur 21 Sur 0.1 -- -- 90
2017-09-15 17:00:00 15.3 4 Sur 18 Sudeste 0 -- -- 89
2017-09-15 16:00:00 15.4 2 Noroeste 23 Sudeste 2.1 -- -- 90
2017-09-15 15:00:00 15 8 Sudeste 24 Sudeste 26.1 -- -- 90
2017-09-15 14:00:00 16 7 Sur 41 Sudoeste 0.7 -- -- 85
2017-09-15 13:00:00 16.6 10 Sudeste 30 Sudeste 0 -- -- 80
2017-09-15 12:00:00 17.1 10 Sur 27 Sudeste 0 -- -- 76
2017-09-15 11:00:00 16.7 8 Sudeste 24 Sudeste 0 -- -- 77
2017-09-15 10:00:00 16.8 7 Sudeste 23 Sudeste 0 -- -- 75
2017-09-15 09:00:00 16.9 8 Sudeste 24 Sudeste 0 -- -- 72
2017-09-15 08:00:00 16.5 10 Sur 26 Sur 0 -- -- 73
2017-09-15 07:00:00 16.7 7 Sudeste 30 Sur 0 -- -- 74
2017-09-15 06:00:00 16.7 8 Sur 31 Sur 0 -- -- 73
2017-09-15 05:00:00 16.9 8 Sudeste 26 Sur 0 -- -- 71
2017-09-15 04:00:00 16.9 7 Sur 28 Sur 0 -- -- 73
2017-09-15 03:00:00 16.9 8 Sudeste 19 Sur 0 -- -- 75
2017-09-15 02:00:00 16.9 6 Sur 21 Sudoeste 0 -- -- 75
2017-09-15 01:00:00 17 7 Sudeste 28 Sudoeste 0 -- -- 80
2017-09-15 00:00:00 17.1 9 Sur 33 Sudoeste 0 -- -- 81
2017-09-14 23:00:00 17.3 4 Sudeste 28 Este 0 -- -- 83
2017-09-14 22:00:00 17.7 9 Sudeste 30 Sur 0 -- -- 84
2017-09-14 21:00:00 18.1 9 Sudeste 31 Este 0 -- -- 86
2017-09-14 20:00:00 20 6 Sudeste 21 Este 0 -- -- 82
2017-09-14 19:00:00 21.2 6 Este 19 Sudeste 0 -- -- 77
2017-09-14 18:00:00 21.9 0 Calma 15 Este 0 -- -- 71
2017-09-14 17:00:00 23.1 6 Nordeste 16 Nordeste 0 -- -- 61
2017-09-14 16:00:00 25 7 Sudoeste 17 Sudoeste 0 -- -- 52
2017-09-14 15:00:00 25.6 4 Sur 19 Sudoeste 0 -- -- 46
2017-09-14 14:00:00 26.7 0 Calma 13 Oeste 0 -- -- 44
2017-09-14 13:00:00 26.9 4 Sur 13 Sur 0 -- -- 50
2017-09-14 12:00:00 25.3 3 Sudeste 17 Sudeste 0 -- -- 53
2017-09-14 11:00:00 23.4 7 Este 18 Sudeste 0 -- -- 60
2017-09-14 10:00:00 22.1 5 Este 17 Sudeste 0 -- -- 65
2017-09-14 09:00:00 19.4 7 Este 18 Sudeste 0 -- -- 73
2017-09-14 08:00:00 15.4 4 Este 9 Este 0 -- -- 77
2017-09-14 07:00:00 15.8 5 Este 11 Este 0 -- -- 75
2017-09-14 06:00:00 15.7 2 Este 14 Sudeste 0 -- -- 78
2017-09-14 05:00:00 13.1 0 Calma 5 Este 0 -- -- 79
2017-09-14 04:00:00 12.7 0 Calma 6 Este 0 -- -- 80
2017-09-14 03:00:00 13.3 0 Calma 2 Sudeste 0 -- -- 78
2017-09-14 02:00:00 14.3 0 Calma 3 Sur 0 -- -- 77
2017-09-14 01:00:00 14.7 0 Calma -- -- 0 -- -- 80
2017-09-14 00:00:00 15.7 0 Calma 7 Oeste 0 -- -- 80
2017-09-13 23:00:00 16.6 0 Calma 5 Sudoeste 0 -- -- 81
2017-09-13 22:00:00 18.7 0 Calma 17 Sudeste 0 -- -- 76
2017-09-13 21:00:00 19.2 0 Calma 28 Sur 0 -- -- 74
2017-09-13 20:00:00 19.9 10 Sudeste 22 Sudeste 0 -- -- 71
2017-09-13 19:00:00 21.2 6 Sur 25 Sur 0 -- -- 64
2017-09-13 18:00:00 22.4 6 Sur 17 Sudeste 0 -- -- 58
2017-09-13 17:00:00 23.2 4 Sudeste 15 Sur 0 -- -- 53
2017-09-13 16:00:00 23.3 4 Sudeste 15 Sudeste 0 -- -- 50
2017-09-13 15:00:00 24.2 5 Sudeste 15 Sur 0 -- -- 47
2017-09-13 14:00:00 23.9 2 Sur 13 Sur 0 -- -- 49
2017-09-13 13:00:00 23.5 3 Este 17 Sudeste 0 -- -- 51
2017-09-13 12:00:00 23.4 5 Sudeste 15 Sudeste 0 -- -- 55
2017-09-13 11:00:00 22.5 2 Oeste 9 Oeste 0 -- -- 49
2017-09-13 10:00:00 20.8 2 Este 11 Nordeste 0 -- -- 65
2017-09-13 09:00:00 16.5 0 Calma 7 Nordeste 0 -- -- 86
2017-09-13 08:00:00 14 0 Calma 8 Este 0 -- -- 88
2017-09-13 07:00:00 14.8 0 Calma 9 Este 0 -- -- 88
2017-09-13 06:00:00 15 4 Este 8 Este 0 -- -- 88
2017-09-13 05:00:00 14.5 0 Calma -- -- 0 -- -- 88
2017-09-13 04:00:00 13.8 0 Calma -- -- 0 -- -- 87
2017-09-13 03:00:00 15.2 0 Calma 13 Sudeste 0 -- -- 85
2017-09-13 02:00:00 16.1 4 Sudeste 15 Sudeste 0 -- -- 85
2017-09-13 01:00:00 16.3 4 Sudeste 15 Sudeste 0 -- -- 85
2017-09-13 00:00:00 16.2 3 Sudeste 9 Sudeste 0 -- -- 84
2017-09-12 23:00:00 16.6 0 Calma 9 Sudoeste 0 -- -- 83
2017-09-12 22:00:00 17.2 3 Sur 16 Sur 0 -- -- 81
2017-09-12 21:00:00 17.2 5 Sur 17 Sudoeste 0 -- -- 81
2017-09-12 20:00:00 17.4 6 Sur 21 Sudeste 0 -- -- 80
2017-09-12 19:00:00 18 6 Sudeste 17 Sudeste 0 -- -- 78
2017-09-12 18:00:00 18.1 6 Sur 17 Sudeste 0 -- -- 78
2017-09-12 17:00:00 18.4 7 Sudeste 22 Este 0 -- -- 76
2017-09-12 16:00:00 19.1 7 Sudeste 21 Sudeste 0 -- -- 74
2017-09-12 15:00:00 19.2 5 Sudeste 24 Sudoeste 0 -- -- 72
2017-09-12 14:00:00 19.3 10 Sudeste 26 Sudoeste 0 -- -- 70
2017-09-12 13:00:00 19.5 8 Sur 22 Sudeste 0 -- -- 70
2017-09-12 12:00:00 19.5 7 Sudeste 23 Sur 0 -- -- 70
2017-09-12 11:00:00 19.1 9 Sur 29 Sur 0 -- -- 71
2017-09-12 10:00:00 18.6 7 Sudeste 24 Sudeste 0 -- -- 76
2017-09-12 09:00:00 18.3 8 Este 26 Sudoeste 0 -- -- 84
2017-09-12 08:00:00 18.2 3 Sudeste 14 Sudeste 0 -- -- 87
2017-09-12 07:00:00 18 5 Sur 15 Sudoeste 0 -- -- 86
2017-09-12 06:00:00 18 4 Sur 17 Sur 0 -- -- 87
2017-09-12 05:00:00 16.7 4 Sur 15 Sudoeste 0 -- -- 88
2017-09-12 04:00:00 13.6 0 Calma -- -- 0 -- -- 86
2017-09-12 03:00:00 13.7 0 Calma -- -- 0 -- -- 84
2017-09-12 02:00:00 14.1 0 Calma -- -- 0 -- -- 83
2017-09-12 01:00:00 14.7 0 Calma -- -- 0 -- -- 82
2017-09-12 00:00:00 15.2 0 Calma -- -- 0 -- -- 78
2017-09-11 23:00:00 15.8 0 Calma 3 Sudeste 0 -- -- 76
2017-09-11 22:00:00 16.7 0 Calma 3 Este 0 -- -- 72
2017-09-11 21:00:00 17.8 0 Calma 7 Sudoeste 0 -- -- 66
2017-09-11 20:00:00 19.2 0 Calma 6 Sur 0 -- -- 59
2017-09-11 19:00:00 21.8 0 Calma 10 Sudeste 0 -- -- 48
2017-09-11 18:00:00 24.1 3 Sudoeste 21 Sur 0 -- -- 36
2017-09-11 17:00:00 25.1 4 Sur 16 Sur 0 -- -- 36
2017-09-11 16:00:00 25.4 4 Sur 22 Sudeste 0 -- -- 36
2017-09-11 15:00:00 25.6 4 Sur 25 Este 0 -- -- 38
2017-09-11 14:00:00 25.1 5 Sur 38 Sudoeste 0 -- -- 40
2017-09-11 13:00:00 24.3 6 Sur 37 Sur 0 -- -- 43
2017-09-11 12:00:00 23.2 6 Sudeste 37 Sudeste 0 -- -- 50
2017-09-11 11:00:00 21.8 9 Sudeste 36 Sudoeste 0 -- -- 53
2017-09-11 10:00:00 21.5 6 Sudeste 38 Nordeste 0 -- -- 54
2017-09-11 09:00:00 20.1 4 Sudeste 27 Sudeste 0 -- -- 56
2017-09-11 08:00:00 18.1 4 Sudeste 21 Sudeste 0 -- -- 64
2017-09-11 07:00:00 17.9 5 Sudeste 26 Sudeste 0 -- -- 68
2017-09-11 06:00:00 17.7 3 Sudeste 18 Sudeste 0 -- -- 65
2017-09-11 05:00:00 16.3 0 Calma 16 Sudoeste 0 -- -- 62
2017-09-11 04:00:00 17.5 4 Sudeste 23 Sudeste 0 -- -- 50
2017-09-11 03:00:00 17.5 5 Sudeste 27 Sudeste 0 -- -- 55
2017-09-11 02:00:00 17.5 4 Sur 26 Sur 0 -- -- 58
2017-09-11 01:00:00 17.6 5 Sudeste 21 Sur 0 -- -- 59
2017-09-11 00:00:00 17.8 5 Sudeste 27 Sudeste 0 -- -- 59
2017-09-10 23:00:00 14.6 3 Sudeste 19 Sur 0 -- -- 77
2017-09-10 22:00:00 13.4 0 Calma 7 Sudeste 0 -- -- 80
2017-09-10 21:00:00 14.2 0 Calma 11 Sur 0 -- -- 75
2017-09-10 20:00:00 15.6 2 Sudoeste 19 Sur 0 -- -- 67
2017-09-10 19:00:00 17 4 Sur 24 Sudeste 0 -- -- 57
2017-09-10 18:00:00 17.4 4 Sur 25 Sudeste 0 -- -- 57
2017-09-10 17:00:00 17.7 5 Sudeste 21 Sudeste 0 -- -- 58
2017-09-10 16:00:00 17.6 3 Sur 21 Sur 0 -- -- 58
2017-09-10 15:00:00 17.4 5 Sur 26 Sur 0 -- -- 62
2017-09-10 14:00:00 16.7 3 Sudoeste 17 Este 0.1 -- -- 67
2017-09-10 13:00:00 16.3 8 Nordeste 22 Sudeste 0 -- -- 58
2017-09-10 12:00:00 17.3 4 Sur 14 Nordeste 0 -- -- 65
2017-09-10 11:00:00 14.8 0 Calma 13 Este 0 -- -- 83
2017-09-10 10:00:00 12.6 7 Este 22 Este 0.5 -- -- 87
2017-09-10 09:00:00 12.4 2 Sudeste 9 Sudoeste 0 -- -- 89
2017-09-10 08:00:00 12.5 0 Calma 9 Oeste 1.8 -- -- 89
2017-09-10 07:00:00 12.6 2 Sudoeste 15 Oeste 3.8 -- -- 89
2017-09-10 06:00:00 12.6 4 Sur 15 Sur 0.5 -- -- 89
2017-09-10 05:00:00 12.2 0 Calma 7 Noroeste 0 -- -- 89
2017-09-10 04:00:00 12.5 0 Calma 18 Oeste 0 -- -- 89
2017-09-10 03:00:00 12.5 5 Oeste 20 Este 1.1 -- -- 89
2017-09-10 02:00:00 13.3 4 Nordeste 22 Nordeste 6.4 -- -- 89
2017-09-10 01:00:00 14.3 4 Este 23 Sudeste 9.5 -- -- 88
2017-09-10 00:00:00 14.4 0 Calma 12 Noroeste 1.1 -- -- 88
2017-09-09 23:00:00 14.8 6 Sudeste 20 Sudeste 0.7 -- -- 88
2017-09-09 22:00:00 15 7 Sudeste 19 Sudeste 2.5 -- -- 88
2017-09-09 21:00:00 15.4 0 Calma 23 Este 2.4 -- -- 87
2017-09-09 20:00:00 16.8 5 Este 35 Este 0 -- -- 78
2017-09-09 19:00:00 18 4 Nordeste 25 Norte 0 -- -- 78
2017-09-09 18:00:00 20 5 Este 22 Este 0 -- -- 73
2017-09-09 17:00:00 20.6 7 Sudeste 17 Sur 0 -- -- 64
2017-09-09 16:00:00 23 5 Sur 17 Sur 0 -- -- 66
2017-09-09 15:00:00 24.2 3 Sudeste 14 Sur 0 -- -- 62
2017-09-09 14:00:00 25 3 Sudeste 12 Este 0 -- -- 60
2017-09-09 13:00:00 24.3 4 Sudeste 17 Sudoeste 0 -- -- 64
2017-09-09 12:00:00 25.9 2 Sudeste 18 Sudeste 0 -- -- 50
2017-09-09 11:00:00 25.1 3 Oeste 42 Sudeste 0 -- -- 52
2017-09-09 10:00:00 23.5 7 Sudoeste 45 Sur 0 -- -- 51
2017-09-09 09:00:00 22.1 7 Sudoeste 39 Sudoeste 0 -- -- 51
2017-09-09 08:00:00 20.1 14 Sur 48 Sur 0 -- -- 56
2017-09-09 07:00:00 19.8 12 Sur 42 Sudoeste 0 -- -- 47
2017-09-09 06:00:00 14.5 0 Calma 6 Sudoeste 0 -- -- 88
2017-09-09 05:00:00 14.9 0 Calma 5 Sur 0 -- -- 88
2017-09-09 04:00:00 15.6 0 Calma 13 Sur 0 -- -- 87
2017-09-09 03:00:00 15.7 5 Norte 12 Noroeste 0 -- -- 89
2017-09-09 02:00:00 14.2 0 Calma -- -- 0 -- -- 88
2017-09-09 01:00:00 14.6 0 Calma -- -- 0 -- -- 87
2017-09-09 00:00:00 15.2 0 Calma -- -- 0 -- -- 87
2017-09-08 23:00:00 15.8 0 Calma -- -- 0 -- -- 85
2017-09-08 22:00:00 16.9 0 Calma 7 Sudeste 0 -- -- 80
2017-09-08 21:00:00 19.1 4 Sudeste 12 Sur 0 -- -- 82
2017-09-08 20:00:00 19.9 5 Sur 16 Sur 0 -- -- 78
2017-09-08 19:00:00 20.5 0 Calma 8 Sur 0 -- -- 66
2017-09-08 18:00:00 22.2 3 Sur 15 Sur 0 -- -- 63
2017-09-08 17:00:00 22.6 4 Sur 19 Sudeste 0 -- -- 62
2017-09-08 16:00:00 23.4 4 Sur 19 Sudoeste 0 -- -- 62
2017-09-08 15:00:00 23.1 4 Sur 15 Sur 0 -- -- 66
2017-09-08 14:00:00 23.3 2 Sudoeste 12 Sur 0 -- -- 67
2017-09-08 13:00:00 22.4 0 Calma 10 Sudeste 0 -- -- 67
2017-09-08 12:00:00 21.5 0 Calma 7 Sudoeste 0 -- -- 67
2017-09-08 11:00:00 22 0 Calma 9 Oeste 0 -- -- 70
2017-09-08 10:00:00 20.3 0 Calma 6 Sur 0 -- -- 86
2017-09-08 09:00:00 17.4 0 Calma 5 Este 0 -- -- 89
2017-09-08 08:00:00 16.2 0 Calma 6 Sudeste 0 -- -- 89
2017-09-08 07:00:00 16.9 0 Calma 6 Este 2.8 -- -- 89
2017-09-08 06:00:00 16.9 0 Calma 2 Sudoeste 0.5 -- -- 89
2017-09-08 05:00:00 17 0 Calma 6 Sur 2.2 -- -- 89
2017-09-08 04:00:00 16.3 0 Calma 5 Sudoeste 0 -- -- 89
2017-09-08 03:00:00 16.8 0 Calma 4 Este 1.4 -- -- 89
2017-09-08 02:00:00 17 0 Calma 6 Sudoeste 2 -- -- 89
2017-09-08 01:00:00 16.9 0 Calma 10 Nordeste 0.1 -- -- 89
2017-09-08 00:00:00 17 0 Calma -- -- 0 -- -- 89
2017-09-07 23:00:00 17.5 0 Calma -- -- 0 -- -- 89
2017-09-07 22:00:00 18 0 Calma 10 Este 0 -- -- 89
2017-09-07 21:00:00 18 4 Este 14 Sudeste 0 -- -- 89
2017-09-07 20:00:00 18.5 2 Sudeste 10 Este 0 -- -- 89
2017-09-07 19:00:00 18.7 2 Este 16 Sur 0 -- -- 88
2017-09-07 18:00:00 18.8 5 Sur 15 Sur 0 -- -- 88
2017-09-07 17:00:00 18.8 5 Sur 13 Sudeste 4.3 -- -- 88
2017-09-07 16:00:00 19 2 Sudeste 13 Sudeste 6.3 -- -- 88
2017-09-07 15:00:00 19.1 5 Sudeste 14 Sudeste 0.1 -- -- 86
2017-09-07 14:00:00 19.2 2 Sur 14 Sur 0.3 -- -- 84
2017-09-07 13:00:00 20.1 3 Sudeste 13 Sudeste 0 -- -- 77
2017-09-07 12:00:00 21.8 3 Sur 17 Sudeste 0 -- -- 66
2017-09-07 11:00:00 19.9 5 Sudeste 14 Sudeste 0 -- -- 78
2017-09-07 10:00:00 17.1 0 Calma 15 Sur 0 -- -- 89
2017-09-07 09:00:00 16.6 0 Calma 43 Nordeste 18.8 -- -- 89
2017-09-07 08:00:00 18.6 0 Calma 14 Sur 1.5 -- -- 89
2017-09-07 07:00:00 18.4 4 Este 15 Sur 5.5 -- -- 89
2017-09-07 06:00:00 18.8 0 Calma 10 Sudeste 12.3 -- -- 89
2017-09-07 05:00:00 19 4 Este 12 Este 2.2 -- -- 89
2017-09-07 04:00:00 19.2 3 Este 10 Este 0 -- -- 86
2017-09-07 03:00:00 18.5 0 Calma 9 Este 0 -- -- 85
2017-09-07 02:00:00 19.1 0 Calma 11 Sudeste 0 -- -- 84
2017-09-07 01:00:00 19.3 2 Sudeste 10 Sudeste 0 -- -- 84
2017-09-07 00:00:00 19.6 3 Sudeste 12 Sudeste 0 -- -- 81
2017-09-06 23:00:00 20 4 Sudeste 13 Este 0 -- -- 80
2017-09-06 22:00:00 20.4 0 Calma 12 Sudeste 0 -- -- 81
2017-09-06 21:00:00 20.7 5 Sudeste 13 Sudeste 0 -- -- 80
2017-09-06 20:00:00 20.9 6 Sudeste 15 Sudeste 0 -- -- 78
2017-09-06 19:00:00 21.7 5 Sudoeste 18 Sudoeste 0 -- -- 72
2017-09-06 18:00:00 21.6 7 Sudeste 21 Sudeste 0 -- -- 74
2017-09-06 17:00:00 22.4 6 Sudeste 21 Sudeste 0 -- -- 69
2017-09-06 16:00:00 23.3 9 Sudeste 22 Este 0 -- -- 64
2017-09-06 15:00:00 23.6 5 Sudeste 18 Sudeste 0 -- -- 62
2017-09-06 14:00:00 22.9 6 Este 23 Este 0 -- -- 67
2017-09-06 13:00:00 23.9 7 Sudeste 23 Este 0 -- -- 62
2017-09-06 12:00:00 25.2 6 Sudeste 19 Sudeste 0 -- -- 55
2017-09-06 11:00:00 24.6 3 Sur 13 Sur 0 -- -- 58
2017-09-06 10:00:00 22.1 0 Calma 9 Sur 0 -- -- 71
2017-09-06 09:00:00 17.7 0 Calma -- -- 0 -- -- 86
2017-09-06 08:00:00 14.2 0 Calma -- -- 0 -- -- 88
2017-09-06 07:00:00 14.2 0 Calma -- -- 0 -- -- 88
2017-09-06 06:00:00 14.8 0 Calma 0 Calma 0 -- -- 88
2017-09-06 05:00:00 15.3 0 Calma 3 Sudeste 0 -- -- 88
2017-09-06 04:00:00 15.5 0 Calma -- -- 0 -- -- 88
2017-09-06 03:00:00 16.1 0 Calma -- -- 0 -- -- 86
2017-09-06 02:00:00 16.8 0 Calma -- -- 0 -- -- 85
2017-09-06 01:00:00 17.3 0 Calma -- -- 0 -- -- 81
2017-09-06 00:00:00 18.7 0 Calma 12 Sudeste 0 -- -- 77
2017-09-05 23:00:00 18.9 0 Calma 7 Este 0 -- -- 72
2017-09-05 22:00:00 20.3 0 Calma 14 Sur 0 -- -- 65
2017-09-05 21:00:00 21.6 5 Sudeste 15 Sur 0 -- -- 64
2017-09-05 20:00:00 22.6 3 Sur 13 Sur 0 -- -- 62
2017-09-05 19:00:00 23.1 0 Calma 15 Sudoeste 0 -- -- 70
2017-09-05 18:00:00 24.2 3 Sur 19 Sudoeste 0 -- -- 64
2017-09-05 17:00:00 25.3 2 Sudoeste 21 Este 0 -- -- 58
2017-09-05 16:00:00 25.6 4 Sudeste 14 Oeste 0 -- -- 57
2017-09-05 15:00:00 25.5 4 Sudeste 16 Este 0 -- -- 57
2017-09-05 14:00:00 25.9 4 Este 19 Este 0 -- -- 53
2017-09-05 13:00:00 27.6 7 Este 22 Sudeste 0 -- -- 35
2017-09-05 12:00:00 26.9 6 Este 19 Sudeste 0 -- -- 36
2017-09-05 11:00:00 26 4 Este 13 Nordeste 0 -- -- 39
2017-09-05 10:00:00 22.9 0 Calma 9 Noroeste 0 -- -- 49
2017-09-05 09:00:00 17.4 0 Calma 5 Sudeste 0 -- -- 82
2017-09-05 08:00:00 14 0 Calma -- -- 0 -- -- 87
2017-09-05 07:00:00 14.4 0 Calma 3 Sur 0 -- -- 87
2017-09-05 06:00:00 15.4 0 Calma 6 Nordeste 0 -- -- 84
2017-09-05 05:00:00 16.9 5 Este 9 Este 0 -- -- 84
2017-09-05 04:00:00 17.5 0 Calma 8 Este 0 -- -- 86
2017-09-05 03:00:00 18.3 3 Este 11 Sudeste 0 -- -- 86
2017-09-05 02:00:00 18.5 3 Sudeste 15 Sudeste 0 -- -- 87
2017-09-05 01:00:00 17.2 0 Calma 5 Sudeste 0 -- -- 84
2017-09-05 00:00:00 18 0 Calma 5 Este 0 -- -- 80
2017-09-04 23:00:00 18.6 0 Calma 9 Sur 0 -- -- 77
2017-09-04 22:00:00 18.9 0 Calma 5 Sudeste 0 -- -- 71
2017-09-04 21:00:00 20.6 0 Calma 10 Sur 0 -- -- 62
2017-09-04 20:00:00 22.4 4 Sudeste 16 Sur 0 -- -- 55
2017-09-04 19:00:00 23.6 5 Sudeste 20 Sur 0 -- -- 47
2017-09-04 18:00:00 24.4 8 Sudeste 23 Sur 0 -- -- 47
2017-09-04 17:00:00 24.9 5 Sudeste 22 Sudeste 0 -- -- 51
2017-09-04 16:00:00 25.6 7 Sur 21 Sur 0 -- -- 44
2017-09-04 15:00:00 24.2 4 Sur 17 Sudoeste 0 -- -- 51
2017-09-04 14:00:00 25.6 6 Sudeste 20 Sudeste 0 -- -- 47
2017-09-04 13:00:00 26 5 Sudeste 23 Sur 0 -- -- 47
2017-09-04 12:00:00 24.9 5 Sur 23 Sudoeste 0 -- -- 53
2017-09-04 11:00:00 23 5 Sudeste 16 Este 0 -- -- 57
2017-09-04 10:00:00 20.3 5 Sudeste 24 Sur 0 -- -- 73
2017-09-04 09:00:00 19.6 7 Sudeste 21 Sudeste 0 -- -- 80
2017-09-04 08:00:00 19 5 Sudeste 22 Sudeste 0 -- -- 85
2017-09-04 07:00:00 19 6 Este 18 Sur 0 -- -- 87
2017-09-04 06:00:00 19 6 Este 17 Sur 0 -- -- 87
2017-09-04 05:00:00 17.5 4 Sudeste 12 Sudeste 0 -- -- 88
2017-09-04 04:00:00 15.6 0 Calma -- -- 0 -- -- 87
2017-09-04 03:00:00 15.6 0 Calma -- -- 0 -- -- 87
2017-09-04 02:00:00 16.4 0 Calma -- -- 0 -- -- 86
2017-09-04 01:00:00 17 0 Calma 8 Este 0 -- -- 84
2017-09-04 00:00:00 18 2 Este 8 Este 0 -- -- 85
2017-09-03 23:00:00 17.8 0 Calma -- -- 0 -- -- 83
2017-09-03 22:00:00 19 0 Calma 2 Sudeste 0 -- -- 78
2017-09-03 21:00:00 20.5 0 Calma 9 Sudeste 0 -- -- 74
2017-09-03 20:00:00 21.6 0 Calma 8 Sudoeste 0 -- -- 67
2017-09-03 19:00:00 23 3 Sudoeste 14 Sudoeste 0 -- -- 64
2017-09-03 18:00:00 23.4 0 Calma 12 Sur 0 -- -- 60
2017-09-03 17:00:00 23.7 4 Sudeste 12 Sudoeste 0 -- -- 56
2017-09-03 16:00:00 24.3 4 Sudeste 13 Sudeste 0 -- -- 48
2017-09-03 15:00:00 25.9 2 Sudeste 17 Sudoeste 0 -- -- 37
2017-09-03 14:00:00 25.3 0 Calma 12 Este 0 -- -- 34
2017-09-03 13:00:00 24.4 4 Sur 12 Sudeste 0 -- -- 35
2017-09-03 12:00:00 24.4 2 Sudeste 9 Norte 0 -- -- 33
2017-09-03 11:00:00 23.6 2 Oeste 12 Sudoeste 0 -- -- 33
2017-09-03 10:00:00 20.3 0 Calma -- -- 0 -- -- 52
2017-09-03 09:00:00 13.7 0 Calma -- -- 0 -- -- 87
2017-09-03 08:00:00 11.2 0 Calma -- -- 0 -- -- 87
2017-09-03 07:00:00 11.3 0 Calma -- -- 0 -- -- 87
2017-09-03 06:00:00 12.2 0 Calma 6 Sudeste 0 -- -- 86
2017-09-03 05:00:00 13.4 0 Calma 5 Sudeste 0 -- -- 85
2017-09-03 04:00:00 14.4 0 Calma 9 Sudeste 0 -- -- 85
2017-09-03 03:00:00 15.7 2 Este 16 Sur 0 -- -- 85
2017-09-03 02:00:00 16.2 3 Sudeste 15 Sur 0 -- -- 83
2017-09-03 01:00:00 16.2 4 Sudeste 14 Sur 0 -- -- 83
2017-09-03 00:00:00 16.6 5 Sur 19 Sur 0 -- -- 81
2017-09-02 23:00:00 16.4 4 Sudeste 13 Sur 0 -- -- 80
2017-09-02 22:00:00 16.6 4 Sudeste 14 Sur 0 -- -- 77
2017-09-02 21:00:00 17 6 Sur 13 Sur 0 -- -- 72
2017-09-02 20:00:00 17.8 0 Calma 10 Sur 0 -- -- 67
2017-09-02 19:00:00 19.1 2 Este 13 Este 0 -- -- 60
2017-09-02 18:00:00 20.5 2 Sur 13 Oeste 0 -- -- 52
2017-09-02 17:00:00 21.3 6 Sur 20 Sudeste 0 -- -- 50
2017-09-02 16:00:00 21.8 4 Sur 21 Sur 0 -- -- 47
2017-09-02 15:00:00 22 4 Sur 16 Oeste 0 -- -- 47
2017-09-02 14:00:00 22.9 3 Sur 18 Sur 0.1 -- -- 48
2017-09-02 13:00:00 20.8 5 Sudeste 13 Este 0 -- -- 52
2017-09-02 12:00:00 20.2 0 Calma 12 Sudoeste 0 -- -- 53
2017-09-02 11:00:00 20.1 5 Este 20 Este 0 -- -- 45
2017-09-02 10:00:00 19.5 3 Sudeste 13 Sur 0 -- -- 59
2017-09-02 09:00:00 16.4 0 Calma 8 Sudeste 0 -- -- 88
2017-09-02 08:00:00 14.3 0 Calma -- -- 0 -- -- 89
2017-09-02 07:00:00 15 0 Calma 4 Sudeste 0.5 -- -- 89
2017-09-02 06:00:00 15.1 0 Calma 5 Sur 0 -- -- 88
2017-09-02 05:00:00 15.2 0 Calma 6 Sudeste 0.2 -- -- 88
2017-09-02 04:00:00 14.7 0 Calma -- -- 0 -- -- 87
2017-09-02 03:00:00 14.9 0 Calma -- -- 0 -- -- 86
2017-09-02 02:00:00 15.3 0 Calma -- -- 0 -- -- 86
2017-09-02 01:00:00 15.9 0 Calma -- -- 0 -- -- 85
2017-09-02 00:00:00 15.6 0 Calma -- -- 0 -- -- 83
2017-09-01 23:00:00 15.8 0 Calma -- -- 0 -- -- 81
2017-09-01 22:00:00 16.9 0 Calma 8 Sudeste 0 -- -- 75
2017-09-01 21:00:00 18.1 0 Calma 8 Sur 0 -- -- 69
2017-09-01 20:00:00 19.1 0 Calma 11 Sudeste 0 -- -- 64
2017-09-01 19:00:00 20.3 0 Calma 13 Oeste 0 -- -- 58
2017-09-01 18:00:00 21.9 0 Calma 13 Este 0 -- -- 54
2017-09-01 17:00:00 22.5 3 Nordeste 22 Nordeste 0 -- -- 53
2017-09-01 16:00:00 22 4 Nordeste 20 Nordeste 0 -- -- 54
2017-09-01 15:00:00 22.6 8 Este 23 Este 0 -- -- 53
2017-09-01 14:00:00 22.7 5 Este 22 Norte 0 -- -- 54
2017-09-01 13:00:00 21.3 5 Este 17 Norte 0 -- -- 58
2017-09-01 12:00:00 21.9 2 Sudeste 24 Sudoeste 0 -- -- 60
2017-09-01 11:00:00 20.8 2 Este 18 Sudeste 0 -- -- 65
2017-09-01 10:00:00 19.7 0 Calma 9 Norte 0 -- -- 72
2017-09-01 09:00:00 18.3 2 Nordeste 15 Norte 0 -- -- 80
2017-09-01 08:00:00 16.9 4 Nordeste 13 Norte 0 -- -- 89
2017-09-01 07:00:00 16.7 0 Calma 11 Norte 0 -- -- 90
2017-09-01 06:00:00 16.3 0 Calma -- -- 0 -- -- 90
2017-09-01 05:00:00 16.1 0 Calma 4 Este 0 -- -- 90
2017-09-01 04:00:00 16 0 Calma -- -- 0 -- -- 90
2017-09-01 03:00:00 16.1 0 Calma -- -- 0 -- -- 90
2017-09-01 02:00:00 16.2 0 Calma 6 Sudeste 0 -- -- 89
2017-09-01 01:00:00 16.6 0 Calma 5 Sur 0 -- -- 89
2017-09-01 00:00:00 17 0 Calma 7 Este 0 -- -- 89
2017-08-31 23:00:00 17.6 0 Calma 6 Sur 0 -- -- 88
2017-08-31 22:00:00 18.5 0 Calma 14 Sur 0 -- -- 88
2017-08-31 21:00:00 18.8 6 Sur 19 Sur 0 -- -- 87
2017-08-31 20:00:00 19 5 Sur 18 Sur 0 -- -- 87
2017-08-31 19:00:00 19.6 4 Sudoeste 16 Nordeste 0 -- -- 88
2017-08-31 18:00:00 20.6 5 Norte 16 Este 0.4 -- -- 87
2017-08-31 17:00:00 22.1 0 Calma 10 Sur 0 -- -- 85
2017-08-31 16:00:00 21.2 3 Sur 14 Sudoeste 4.6 -- -- 87
2017-08-31 15:00:00 23.2 5 Sudeste 14 Este 0 -- -- 67
2017-08-31 14:00:00 25.9 0 Calma 19 Este 0 -- -- 48
2017-08-31 13:00:00 26.9 7 Este 19 Este 0 -- -- 45
2017-08-31 12:00:00 24.9 3 Este 14 Este 0 -- -- 49
2017-08-31 11:00:00 23.1 2 Sur 13 Sur 0 -- -- 55
2017-08-31 10:00:00 21.5 0 Calma 6 Nordeste 0.1 -- -- 84
2017-08-31 09:00:00 20.3 0 Calma 6 Nordeste 0 -- -- 88
2017-08-31 08:00:00 18.6 0 Calma 9 Este 0 -- -- 88
2017-08-31 07:00:00 18.3 0 Calma 10 Sudoeste 0.1 -- -- 87
2017-08-31 06:00:00 19.1 0 Calma 12 Este 0.2 -- -- 78
2017-08-31 05:00:00 19.8 0 Calma 6 Este 0 -- -- 73
2017-08-31 04:00:00 20.4 6 Este 12 Este 0.1 -- -- 69
2017-08-31 03:00:00 19.9 0 Calma 20 Sudoeste 0.1 -- -- 77
2017-08-31 02:00:00 21.2 0 Calma 19 Sur 0 -- -- 75
2017-08-31 01:00:00 19.7 0 Calma 5 Sudeste 0 -- -- 81
2017-08-31 00:00:00 20.8 0 Calma 15 Sudeste 0 -- -- 75
2017-08-30 23:00:00 21.2 3 Sudeste 12 Sudeste 0 -- -- 74
2017-08-30 22:00:00 21.7 0 Calma 12 Sudoeste 0 -- -- 68
2017-08-30 21:00:00 23 5 Sudeste 12 Sur 0 -- -- 63
2017-08-30 20:00:00 24.2 3 Sudeste 14 Sudeste 0 -- -- 56
2017-08-30 19:00:00 25.8 5 Sudeste 18 Sudeste 0 -- -- 42
2017-08-30 18:00:00 25 0 Calma 17 Este 0 -- -- 51
2017-08-30 17:00:00 25.9 5 Norte 14 Noroeste 0 -- -- 45
2017-08-30 16:00:00 27.1 4 Nordeste 19 Noroeste 0 -- -- 40
2017-08-30 15:00:00 28 0 Calma 17 Sudoeste 0 -- -- 39
2017-08-30 14:00:00 27.7 4 Sur 18 Sudeste 0 -- -- 38
2017-08-30 13:00:00 27.5 5 Este 13 Este 0 -- -- 39
2017-08-30 12:00:00 27.1 0 Calma 10 Este 0 -- -- 36
2017-08-30 11:00:00 24.8 0 Calma 6 Sudoeste 0 -- -- 46
2017-08-30 10:00:00 22.2 0 Calma 5 Este 0 -- -- 57
2017-08-30 09:00:00 20.6 0 Calma 11 Sudoeste 0 -- -- 65
2017-08-30 08:00:00 20 4 Sudeste 26 Sudeste 0 -- -- 71
2017-08-30 07:00:00 19.8 7 Sur 27 Sur 0 -- -- 79
2017-08-30 06:00:00 19.8 6 Sudeste 22 Sudeste 0 -- -- 85
2017-08-30 05:00:00 19.8 3 Sudeste 15 Sudeste 0 -- -- 83
2017-08-30 04:00:00 20.5 8 Sudeste 29 Sur 0.1 -- -- 83
2017-08-30 03:00:00 22.4 3 Sudeste 26 Sudoeste 0 -- -- 58
2017-08-30 02:00:00 21.2 4 Noroeste 10 Noroeste 0 -- -- 77
2017-08-30 01:00:00 20.7 0 Calma 6 Sudoeste 0 -- -- 81
2017-08-30 00:00:00 21.6 0 Calma 12 Sur 0 -- -- 81
2017-08-29 23:00:00 22.1 3 Sudeste 8 Sur 0 -- -- 78
2017-08-29 22:00:00 22.8 2 Sudeste 12 Nordeste 0 -- -- 76
2017-08-29 21:00:00 23.5 0 Calma 8 Sur 0 -- -- 65
2017-08-29 20:00:00 24.4 0 Calma 21 Sur 0 -- -- 50
2017-08-29 19:00:00 25 5 Sudeste 18 Sudeste 0 -- -- 51
2017-08-29 18:00:00 26.1 5 Sudoeste 19 Oeste 0 -- -- 46
2017-08-29 17:00:00 24.8 6 Este 22 Este 0 -- -- 73
2017-08-29 16:00:00 26.2 4 Este 14 Sur 0 -- -- 71
2017-08-29 15:00:00 29.4 4 Sur 16 Sudeste 0 -- -- 59
2017-08-29 14:00:00 30.2 5 Sudeste 18 Este 0 -- -- 53
2017-08-29 13:00:00 28.2 2 Sudeste 18 Oeste 0 -- -- 42
2017-08-29 12:00:00 29.6 7 Sudeste 20 Sur 0 -- -- 36
2017-08-29 11:00:00 30.7 5 Sudeste 18 Sudeste 0 -- -- 39
2017-08-29 10:00:00 28.1 0 Calma 9 Este 0 -- -- 42
2017-08-29 09:00:00 23.3 0 Calma 7 Sur 0 -- -- 61
2017-08-29 08:00:00 17.5 0 Calma 7 Sudoeste 0 -- -- 72
2017-08-29 07:00:00 17.2 0 Calma 0 Calma 0 -- -- 68
2017-08-29 06:00:00 18 0 Calma 5 Sudeste 0 -- -- 65
2017-08-29 05:00:00 18.8 0 Calma -- -- 0 -- -- 64
2017-08-29 04:00:00 20.2 0 Calma -- -- 0 -- -- 61
2017-08-29 03:00:00 21.4 0 Calma -- -- 0 -- -- 58
2017-08-29 02:00:00 22.1 0 Calma 4 Sur 0 -- -- 56
2017-08-29 01:00:00 22.7 0 Calma 12 Sur 0 -- -- 55
2017-08-29 00:00:00 23 0 Calma 9 Norte 0 -- -- 55
2017-08-28 23:00:00 23.3 0 Calma 9 Sur 0 -- -- 56
2017-08-28 22:00:00 24.4 0 Calma 10 Sudeste 0 -- -- 55
2017-08-28 21:00:00 24.5 0 Calma 14 Sudoeste 0 -- -- 64
2017-08-28 20:00:00 25.7 0 Calma 8 Oeste 0 -- -- 73
2017-08-28 19:00:00 26.8 0 Calma 13 Sudoeste 0 -- -- 70
2017-08-28 18:00:00 28.1 3 Sudeste 25 Sudeste 0 -- -- 61
2017-08-28 17:00:00 28.3 0 Calma 13 Norte 0 -- -- 59
2017-08-28 16:00:00 28.9 5 Sudeste 23 Sudoeste 0 -- -- 52
2017-08-28 15:00:00 29.7 7 Sur 24 Sudoeste 0 -- -- 47
2017-08-28 14:00:00 29.3 5 Sudeste 19 Sudeste 0 -- -- 47
2017-08-28 13:00:00 30.5 0 Calma 14 Sudeste 0 -- -- 40
2017-08-28 12:00:00 30.9 4 Sudeste 15 Sudeste 0 -- -- 39
2017-08-28 11:00:00 26.2 2 Sur 9 Sudoeste 0 -- -- 43
2017-08-28 10:00:00 24.1 0 Calma -- -- 0 -- -- 57
2017-08-28 09:00:00 22.3 0 Calma -- -- 0 -- -- 59
2017-08-28 08:00:00 20 0 Calma -- -- 0 -- -- 65
2017-08-28 07:00:00 19 0 Calma 7 Sudeste 0 -- -- 70
2017-08-28 06:00:00 18.5 0 Calma 3 Este 0 -- -- 74
2017-08-28 05:00:00 18.6 0 Calma 4 Sudeste 0 -- -- 73
2017-08-28 04:00:00 19.2 0 Calma 8 Este 0 -- -- 69
2017-08-28 03:00:00 19.1 0 Calma 4 Sudeste 0 -- -- 68
2017-08-28 02:00:00 19.3 0 Calma 4 Sur 0 -- -- 65
2017-08-28 01:00:00 19.8 0 Calma 5 Sudeste 0 -- -- 66
2017-08-28 00:00:00 21 0 Calma -- -- 0 -- -- 72
2017-08-27 23:00:00 22.5 0 Calma -- -- 0 -- -- 75
2017-08-27 22:00:00 23.5 0 Calma 5 Sur 0 -- -- 73
2017-08-27 21:00:00 25 0 Calma 6 Nordeste 0 -- -- 67
2017-08-27 20:00:00 26.4 0 Calma 15 Sudoeste 0 -- -- 64
2017-08-27 19:00:00 26.3 3 Noroeste 9 Nordeste 0 -- -- 61
2017-08-27 18:00:00 27.2 2 Este 14 Este 0 -- -- 58
2017-08-27 17:00:00 30 0 Calma 17 Sudoeste 0 -- -- 44
2017-08-27 16:00:00 30.5 5 Sur 20 Sudeste 0 -- -- 40
2017-08-27 15:00:00 31.8 5 Sudeste 16 Sur 0 -- -- 33
2017-08-27 14:00:00 31.5 6 Sudeste 17 Sudeste 0 -- -- 35
2017-08-27 13:00:00 31 8 Sudeste 24 Sur 0 -- -- 37
2017-08-27 12:00:00 28.3 10 Sudeste 27 Sur 0 -- -- 41
2017-08-27 11:00:00 28.8 8 Sur 20 Sudoeste 0 -- -- 45
2017-08-27 10:00:00 26.2 0 Calma 4 Este 0 -- -- 43
2017-08-27 09:00:00 20.1 0 Calma 4 Sur 0 -- -- 71
2017-08-27 08:00:00 16 0 Calma -- -- 0 -- -- 86
2017-08-27 07:00:00 16 0 Calma -- -- 0 -- -- 84
2017-08-27 06:00:00 16.6 0 Calma 0 Calma 0 -- -- 85
2017-08-27 05:00:00 17.4 0 Calma 6 Este 0 -- -- 87
2017-08-27 04:00:00 17.8 0 Calma -- -- 0 -- -- 87
2017-08-27 03:00:00 18.4 0 Calma -- -- 0 -- -- 82
2017-08-27 02:00:00 19.1 0 Calma 4 Este 0 -- -- 81
2017-08-27 01:00:00 20.2 0 Calma 3 Este 0 -- -- 80
2017-08-27 00:00:00 21.3 0 Calma 6 Sudeste 0 -- -- 81
2017-08-26 23:00:00 21.5 0 Calma -- -- 0 -- -- 79
2017-08-26 22:00:00 22.8 0 Calma 8 Este 0 -- -- 77
2017-08-26 21:00:00 24.4 4 Este 18 Sudeste 0 -- -- 77
2017-08-26 20:00:00 25.4 5 Sudeste 14 Sudeste 0 -- -- 68
2017-08-26 19:00:00 26.8 5 Sudeste 16 Sudeste 0 -- -- 58
2017-08-26 18:00:00 28.1 5 Sudeste 15 Sudoeste 0 -- -- 51
2017-08-26 17:00:00 29.5 2 Este 12 Sudeste 0 -- -- 49
2017-08-26 16:00:00 29.1 4 Sudeste 17 Sudeste 0 -- -- 47
2017-08-26 15:00:00 29.9 2 Sudeste 11 Sur 0 -- -- 46
2017-08-26 14:00:00 29.7 3 Sudeste 15 Sur 0 -- -- 47
2017-08-26 13:00:00 29.7 6 Sur 17 Sur 0 -- -- 51
2017-08-26 12:00:00 28.6 3 Sudoeste 11 Sudoeste 0 -- -- 55
2017-08-26 11:00:00 26 2 Oeste 9 Oeste 0 -- -- 68
2017-08-26 10:00:00 25.9 0 Calma 7 Noroeste 0 -- -- 61
2017-08-26 09:00:00 22 0 Calma 4 Este 0 -- -- 59
2017-08-26 08:00:00 17.7 0 Calma 4 Sudeste 0 -- -- 65
2017-08-26 07:00:00 19.2 0 Calma 10 Este 0 -- -- 62
2017-08-26 06:00:00 21.2 6 Este 21 Sudeste 0 -- -- 76
2017-08-26 05:00:00 21.3 7 Sudeste 22 Sudeste 0 -- -- 75
2017-08-26 04:00:00 19.6 4 Este 11 Sudeste 0 -- -- 84
2017-08-26 03:00:00 18.9 0 Calma 5 Sudeste 0 -- -- 84
2017-08-26 02:00:00 19.1 0 Calma 2 Oeste 0 -- -- 75
2017-08-26 01:00:00 19.9 0 Calma 4 Sudeste 0 -- -- 65
2017-08-26 00:00:00 22 0 Calma 12 Este 0 -- -- 59
2017-08-25 23:00:00 23.4 2 Sudeste 20 Sur 0 -- -- 61
2017-08-25 22:00:00 23.6 9 Sudeste 25 Sudeste 0 -- -- 68
2017-08-25 21:00:00 24.1 9 Sudeste 22 Sudeste 0 -- -- 65
2017-08-25 20:00:00 25.4 8 Este 21 Sudeste 0 -- -- 61
2017-08-25 19:00:00 26.1 0 Calma 9 Este 0 -- -- 66
2017-08-25 18:00:00 28.4 0 Calma 14 Este 0 -- -- 47
2017-08-25 17:00:00 -- -- -- -- -- -- -- -- --
2017-08-25 16:00:00 29.8 4 Sudeste 18 Sudeste 0 -- -- 39
2017-08-25 15:00:00 30.3 6 Sudeste 22 Sudeste 0 -- -- 35
2017-08-25 14:00:00 30.2 6 Sudeste 22 Sudeste 0 -- -- 36
2017-08-25 13:00:00 29.6 8 Sudeste 23 Sudeste 0 -- -- 35
2017-08-25 12:00:00 28.9 7 Sudeste 17 Sudeste 0 -- -- 34
2017-08-25 11:00:00 27.2 8 Sudeste 18 Sudeste 0 -- -- 44
2017-08-25 10:00:00 26.9 4 Sudeste 13 Sudeste 0 -- -- 43
2017-08-25 09:00:00 24.2 5 Este 12 Este 0 -- -- 40
2017-08-25 08:00:00 18.7 3 Este 8 Este 0 -- -- 47
2017-08-25 07:00:00 19 3 Este 7 Este 0 -- -- 47
2017-08-25 06:00:00 19.1 0 Calma 8 Este 0 -- -- 48
2017-08-25 05:00:00 20.8 3 Este 11 Sudeste 0 -- -- 43
2017-08-25 04:00:00 20.8 3 Este 18 Sudeste 0 -- -- 45
2017-08-25 03:00:00 21 5 Sudeste 13 Sudeste 0 -- -- 45
2017-08-25 02:00:00 21 4 Este 16 Sur 0 -- -- 42
2017-08-25 01:00:00 23.1 5 Sudeste 26 Sudoeste 0 -- -- 38
2017-08-25 00:00:00 23.7 8 Sur 26 Sudoeste 0 -- -- 39
2017-08-24 23:00:00 23.6 5 Sudeste 19 Sudeste 0 -- -- 42
2017-08-24 22:00:00 23.3 5 Sur 18 Sur 0 -- -- 43
2017-08-24 21:00:00 24.5 5 Sudeste 17 Sudeste 0 -- -- 37
2017-08-24 20:00:00 26.4 5 Sur 19 Sur 0 -- -- 33
2017-08-24 19:00:00 28 5 Sudeste 22 Sudeste 0 -- -- 30
2017-08-24 18:00:00 29.4 4 Sudeste 22 Sudeste 0 -- -- 29
2017-08-24 17:00:00 30.2 4 Sudeste 21 Sudeste 0 -- -- 29
2017-08-24 16:00:00 30.3 6 Sudeste 25 Sudeste 0 -- -- 29
2017-08-24 15:00:00 30 9 Este 23 Sudeste 0 -- -- 30
2017-08-24 14:00:00 30.2 7 Sudeste 22 Sudeste 0 -- -- 28
2017-08-24 13:00:00 29.4 7 Este 23 Sudeste 0 -- -- 30
2017-08-24 12:00:00 29.2 8 Este 22 Sudeste 0 -- -- 30
2017-08-24 11:00:00 27.7 8 Este 20 Este 0 -- -- 32
2017-08-24 10:00:00 26.1 6 Sudeste 17 Sudeste 0 -- -- 35
2017-08-24 09:00:00 20.6 0 Calma 8 Este 0 -- -- 74
2017-08-24 08:00:00 15.6 0 Calma -- -- 0 -- -- 86
2017-08-24 07:00:00 15.4 0 Calma -- -- 0 -- -- 83
2017-08-24 06:00:00 15.8 0 Calma -- -- 0 -- -- 76
2017-08-24 05:00:00 17.1 0 Calma -- -- 0 -- -- 69
2017-08-24 04:00:00 19.1 0 Calma 8 Sudeste 0 -- -- 62
2017-08-24 03:00:00 21.8 3 Este 14 Este 0 -- -- 60
2017-08-24 02:00:00 21.7 4 Este 15 Sudeste 0 -- -- 67
2017-08-24 01:00:00 19.5 0 Calma 5 Sur 0 -- -- 76
2017-08-24 00:00:00 19.7 0 Calma 8 Sur 0 -- -- 70
2017-08-23 23:00:00 19.7 0 Calma 0 Calma 0 -- -- 76
2017-08-23 22:00:00 21.4 0 Calma -- -- 0 -- -- 68
2017-08-23 21:00:00 22.9 0 Calma 5 Sudoeste 0 -- -- 59
2017-08-23 20:00:00 25.9 2 Norte 14 Sudeste 0 -- -- 48
2017-08-23 19:00:00 27.2 4 Este 17 Sur 0 -- -- 43
2017-08-23 18:00:00 27.6 7 Sudeste 24 Sudeste 0 -- -- 45
2017-08-23 17:00:00 28.5 7 Sudeste 19 Este 0 -- -- 44
2017-08-23 16:00:00 28.9 4 Sudeste 16 Nordeste 0 -- -- 39
2017-08-23 15:00:00 29.5 3 Sudeste 21 Este 0 -- -- 34
2017-08-23 14:00:00 29.4 7 Este 27 Sudeste 0 -- -- 29
2017-08-23 13:00:00 29.4 8 Sudeste 25 Sudeste 0 -- -- 32
2017-08-23 12:00:00 28.4 8 Este 21 Sudeste 0 -- -- 37
2017-08-23 11:00:00 26.6 5 Sudeste 21 Este 0 -- -- 42
2017-08-23 10:00:00 25.7 4 Sudeste 15 Este 0 -- -- 41
2017-08-23 09:00:00 20.8 4 Este 8 Este 0 -- -- 68
2017-08-23 08:00:00 15.1 0 Calma 0 Calma 0 -- -- 77
2017-08-23 07:00:00 16.3 0 Calma 9 Este 0 -- -- 73
2017-08-23 06:00:00 17.6 4 Este 14 Sudeste 0 -- -- 72
2017-08-23 05:00:00 14.8 0 Calma -- -- 0 -- -- 84
2017-08-23 04:00:00 15.6 0 Calma 3 Sur 0 -- -- 82
2017-08-23 03:00:00 16.5 0 Calma 4 Sudeste 0 -- -- 81
2017-08-23 02:00:00 17.8 0 Calma 4 Sudeste 0 -- -- 81
2017-08-23 01:00:00 19.1 0 Calma 8 Sudeste 0 -- -- 74
2017-08-23 00:00:00 21.4 3 Sudeste 17 Sudeste 0 -- -- 71
2017-08-22 23:00:00 21.8 5 Este 14 Sudeste 0 -- -- 69
2017-08-22 22:00:00 22.4 4 Sudeste 14 Sudeste 0 -- -- 66
2017-08-22 21:00:00 22.9 0 Calma 13 Sudoeste 0 -- -- 68
2017-08-22 20:00:00 25.1 0 Calma 14 Sur 0 -- -- 53
2017-08-22 19:00:00 26.6 6 Sudeste 21 Sudeste 0 -- -- 46
2017-08-22 18:00:00 27.4 7 Sudeste 22 Sudeste 0 -- -- 42
2017-08-22 17:00:00 28.2 3 Sudeste 17 Sudeste 0 -- -- 40
2017-08-22 16:00:00 28.6 3 Sudeste 18 Sur 0 -- -- 35
2017-08-22 15:00:00 28.9 3 Este 18 Este 0 -- -- 33
2017-08-22 14:00:00 29 6 Este 21 Sudeste 0 -- -- 32
2017-08-22 13:00:00 28.4 4 Sudeste 15 Sudeste 0 -- -- 33
2017-08-22 12:00:00 28 5 Este 15 Sudeste 0 -- -- 35
2017-08-22 11:00:00 26.1 4 Este 15 Este 0 -- -- 37
2017-08-22 10:00:00 25.1 6 Este 15 Este 0 -- -- 38
2017-08-22 09:00:00 21.9 5 Este 14 Sudeste 0 -- -- 50
2017-08-22 08:00:00 12.9 0 Calma 6 Este 0 -- -- 78
2017-08-22 07:00:00 12.1 0 Calma -- -- 0 -- -- 77
2017-08-22 06:00:00 12.3 0 Calma -- -- 0 -- -- 75
2017-08-22 05:00:00 12.6 0 Calma -- -- 0 -- -- 76
2017-08-22 04:00:00 13.4 0 Calma -- -- 0 -- -- 78
2017-08-22 03:00:00 14.1 0 Calma -- -- 0 -- -- 81
2017-08-22 02:00:00 14.6 0 Calma -- -- 0 -- -- 77
2017-08-22 01:00:00 15.3 0 Calma -- -- 0 -- -- 73
2017-08-22 00:00:00 16.2 0 Calma -- -- 0 -- -- 65